Lomax, Illinois
Current Conditions -  °F | °C
As of 3:53 AM on Sunday 26 Oct 2014 (Local Time) from KBRL Reporting Station
Clear Clear  
Wind Chill: 50°   Ceiling: Unl
Heat Index: 50°   Visibility: 10mi
Dew Point: 35°   Wind: 3mph
Humidity: 57%   Direction: 30°NNE
Pressure: 30.02"   Gusts: NA
Location:  40.68°N, 91.07°W
Report Text: KBRL 260853Z AUTO 03003KT 10SM CLR 10/02 A3002 RMK AO2 SLP163 T01000017 58010
Loading
Personal Weather Stations






























Interactive Weather Map
Tropical Storm Tracking
New forecast layout! Learn more

10-Day Weather Forecast

Advertisements
Track Severe Weather on mobile